sensor_id;sensor_type;location;lat;lon;timestamp;temperature;humidity
45491;DHT22;31237;45.586;13.782;2024-03-23T00:55:49;12.20;73.10
45491;DHT22;31237;45.586;13.782;2024-03-23T00:58:15;12.20;73.00
45491;DHT22;31237;45.586;13.782;2024-03-23T01:00:40;12.20;73.00
45491;DHT22;31237;45.586;13.782;2024-03-23T01:03:06;12.20;73.00
45491;DHT22;31237;45.586;13.782;2024-03-23T01:05:32;12.10;72.90
45491;DHT22;31237;45.586;13.782;2024-03-23T01:07:57;12.10;72.90
45491;DHT22;31237;45.586;13.782;2024-03-23T01:10:23;12.10;72.90
45491;DHT22;31237;45.586;13.782;2024-03-23T01:12:49;12.00;72.90
45491;DHT22;31237;45.586;13.782;2024-03-23T01:15:15;12.10;73.60
45491;DHT22;31237;45.586;13.782;2024-03-23T01:17:41;12.00;72.90
45491;DHT22;31237;45.586;13.782;2024-03-23T01:20:07;12.00;72.90
45491;DHT22;31237;45.586;13.782;2024-03-23T01:22:33;12.00;72.80
45491;DHT22;31237;45.586;13.782;2024-03-23T01:24:59;12.00;72.80
45491;DHT22;31237;45.586;13.782;2024-03-23T01:27:24;12.00;72.80
45491;DHT22;31237;45.586;13.782;2024-03-23T01:29:50;12.00;72.80
45491;DHT22;31237;45.586;13.782;2024-03-23T01:32:18;11.90;72.90
45491;DHT22;31237;45.586;13.782;2024-03-23T01:34:44;11.90;72.90
45491;DHT22;31237;45.586;13.782;2024-03-23T01:37:10;11.80;73.00
45491;DHT22;31237;45.586;13.782;2024-03-23T01:39:36;11.80;73.20
45491;DHT22;31237;45.586;13.782;2024-03-23T01:42:02;11.80;73.30
45491;DHT22;31237;45.586;13.782;2024-03-23T01:44:28;11.80;73.40
45491;DHT22;31237;45.586;13.782;2024-03-23T01:46:53;11.70;73.40
45491;DHT22;31237;45.586;13.782;2024-03-23T01:49:19;11.70;73.50
45491;DHT22;31237;45.586;13.782;2024-03-23T01:51:46;11.70;73.50
45491;DHT22;31237;45.586;13.782;2024-03-23T01:54:11;11.70;73.60
45491;DHT22;31237;45.586;13.782;2024-03-23T01:56:37;11.70;73.70
45491;DHT22;31237;45.586;13.782;2024-03-23T01:59:07;11.60;73.70
45491;DHT22;31237;45.586;13.782;2024-03-23T02:01:34;11.60;73.70
45491;DHT22;31237;45.586;13.782;2024-03-23T02:04:01;11.60;73.80
45491;DHT22;31237;45.586;13.782;2024-03-23T02:06:27;11.60;73.80
45491;DHT22;31237;45.586;13.782;2024-03-23T02:08:56;11.60;73.70
45491;DHT22;31237;45.586;13.782;2024-03-23T02:11:23;11.60;73.70
45491;DHT22;31237;45.586;13.782;2024-03-23T02:13:49;11.60;73.60
45491;DHT22;31237;45.586;13.782;2024-03-23T02:16:14;11.60;73.60
45491;DHT22;31237;45.586;13.782;2024-03-23T02:18:40;11.60;73.40
45491;DHT22;31237;45.586;13.782;2024-03-23T02:21:06;11.60;73.40
45491;DHT22;31237;45.586;13.782;2024-03-23T02:23:31;11.60;73.30
45491;DHT22;31237;45.586;13.782;2024-03-23T02:25:57;11.60;73.30
45491;DHT22;31237;45.586;13.782;2024-03-23T02:28:23;11.60;73.40
45491;DHT22;31237;45.586;13.782;2024-03-23T02:30:49;11.50;73.30
45491;DHT22;31237;45.586;13.782;2024-03-23T02:33:15;11.50;73.40
45491;DHT22;31237;45.586;13.782;2024-03-23T02:35:41;11.50;73.50
45491;DHT22;31237;45.586;13.782;2024-03-23T02:38:07;11.50;73.60
45491;DHT22;31237;45.586;13.782;2024-03-23T02:40:33;11.50;73.70
45491;DHT22;31237;45.586;13.782;2024-03-23T02:42:59;11.40;73.70
45491;DHT22;31237;45.586;13.782;2024-03-23T02:45:24;11.40;73.80
45491;DHT22;31237;45.586;13.782;2024-03-23T02:47:50;11.30;73.90
45491;DHT22;31237;45.586;13.782;2024-03-23T02:50:19;11.30;74.00
45491;DHT22;31237;45.586;13.782;2024-03-23T02:52:45;11.30;74.10
45491;DHT22;31237;45.586;13.782;2024-03-23T02:55:11;11.20;74.20
45491;DHT22;31237;45.586;13.782;2024-03-23T02:57:37;11.20;74.30
45491;DHT22;31237;45.586;13.782;2024-03-23T03:00:03;11.10;74.50
45491;DHT22;31237;45.586;13.782;2024-03-23T03:02:30;11.00;74.60
45491;DHT22;31237;45.586;13.782;2024-03-23T03:04:56;11.00;74.80
45491;DHT22;31237;45.586;13.782;2024-03-23T03:07:22;11.00;75.00
45491;DHT22;31237;45.586;13.782;2024-03-23T03:09:48;10.90;75.60
45491;DHT22;31237;45.586;13.782;2024-03-23T03:12:13;10.90;75.10
45491;DHT22;31237;45.586;13.782;2024-03-23T03:14:39;10.80;75.20
45491;DHT22;31237;45.586;13.782;2024-03-23T03:17:05;10.80;75.30
45491;DHT22;31237;45.586;13.782;2024-03-23T03:19:31;10.70;75.40
45491;DHT22;31237;45.586;13.782;2024-03-23T03:21:57;10.70;75.50
45491;DHT22;31237;45.586;13.782;2024-03-23T03:24:23;10.60;75.70
45491;DHT22;31237;45.586;13.782;2024-03-23T03:26:49;10.60;75.80
45491;DHT22;31237;45.586;13.782;2024-03-23T03:29:16;10.60;76.00
45491;DHT22;31237;45.586;13.782;2024-03-23T03:31:42;10.50;76.00
45491;DHT22;31237;45.586;13.782;2024-03-23T03:34:08;10.40;76.20
45491;DHT22;31237;45.586;13.782;2024-03-23T03:36:34;10.50;76.30
45491;DHT22;31237;45.586;13.782;2024-03-23T03:39:00;10.40;76.40
45491;DHT22;31237;45.586;13.782;2024-03-23T03:41:28;10.40;76.40
45491;DHT22;31237;45.586;13.782;2024-03-23T03:43:54;10.40;76.40
45491;DHT22;31237;45.586;13.782;2024-03-23T03:46:27;10.40;77.00
45491;DHT22;31237;45.586;13.782;2024-03-23T03:48:54;10.40;76.40
45491;DHT22;31237;45.586;13.782;2024-03-23T03:51:20;10.40;76.30
45491;DHT22;31237;45.586;13.782;2024-03-23T03:53:46;10.40;76.30
45491;DHT22;31237;45.586;13.782;2024-03-23T03:56:12;10.40;76.30
45491;DHT22;31237;45.586;13.782;2024-03-23T03:58:38;10.40;76.40
45491;DHT22;31237;45.586;13.782;2024-03-23T04:01:03;10.40;76.50
45491;DHT22;31237;45.586;13.782;2024-03-23T04:03:29;10.30;76.50
45491;DHT22;31237;45.586;13.782;2024-03-23T04:05:55;10.30;76.60
45491;DHT22;31237;45.586;13.782;2024-03-23T04:08:21;10.30;76.70
45491;DHT22;31237;45.586;13.782;2024-03-23T04:10:47;10.30;76.80
45491;DHT22;31237;45.586;13.782;2024-03-23T04:13:14;10.20;76.80
45491;DHT22;31237;45.586;13.782;2024-03-23T04:15:40;10.20;76.80
45491;DHT22;31237;45.586;13.782;2024-03-23T04:18:06;10.20;76.80
45491;DHT22;31237;45.586;13.782;2024-03-23T04:20:32;10.20;76.80
45491;DHT22;31237;45.586;13.782;2024-03-23T04:23:01;10.20;76.90
45491;DHT22;31237;45.586;13.782;2024-03-23T04:25:27;10.20;76.90
45491;DHT22;31237;45.586;13.782;2024-03-23T04:27:52;10.20;77.00
45491;DHT22;31237;45.586;13.782;2024-03-23T04:30:18;10.20;77.10
45491;DHT22;31237;45.586;13.782;2024-03-23T04:32:45;10.10;77.20
45491;DHT22;31237;45.586;13.782;2024-03-23T04:35:10;10.00;77.40
45491;DHT22;31237;45.586;13.782;2024-03-23T04:37:37;10.00;77.60
45491;DHT22;31237;45.586;13.782;2024-03-23T04:40:04;10.00;77.70
45491;DHT22;31237;45.586;13.782;2024-03-23T04:42:30;9.90;77.90
45491;DHT22;31237;45.586;13.782;2024-03-23T04:44:56;9.90;78.20
45491;DHT22;31237;45.586;13.782;2024-03-23T04:47:22;9.80;78.40
45491;DHT22;31237;45.586;13.782;2024-03-23T04:49:48;9.80;78.80
45491;DHT22;31237;45.586;13.782;2024-03-23T04:52:15;9.80;79.10
45491;DHT22;31237;45.586;13.782;2024-03-23T04:54:41;9.90;79.30
45491;DHT22;31237;45.586;13.782;2024-03-23T04:57:07;9.90;79.60
45491;DHT22;31237;45.586;13.782;2024-03-23T04:59:33;9.90;79.80
45491;DHT22;31237;45.586;13.782;2024-03-23T05:01:59;9.80;79.90
45491;DHT22;31237;45.586;13.782;2024-03-23T05:04:25;9.80;80.10
45491;DHT22;31237;45.586;13.782;2024-03-23T05:06:51;9.80;80.40
45491;DHT22;31237;45.586;13.782;2024-03-23T05:09:17;9.80;80.50
45491;DHT22;31237;45.586;13.782;2024-03-23T05:11:43;9.80;80.70
45491;DHT22;31237;45.586;13.782;2024-03-23T05:14:09;9.80;80.80
45491;DHT22;31237;45.586;13.782;2024-03-23T05:16:35;9.80;80.90
45491;DHT22;31237;45.586;13.782;2024-03-23T05:19:00;9.80;81.00
45491;DHT22;31237;45.586;13.782;2024-03-23T05:21:27;9.80;81.40
45491;DHT22;31237;45.586;13.782;2024-03-23T05:23:54;9.80;81.20
45491;DHT22;31237;45.586;13.782;2024-03-23T05:26:21;9.80;81.40
45491;DHT22;31237;45.586;13.782;2024-03-23T05:28:47;9.90;81.70
45491;DHT22;31237;45.586;13.782;2024-03-23T05:31:23;9.90;81.80
45491;DHT22;31237;45.586;13.782;2024-03-23T05:33:49;9.90;81.90
45491;DHT22;31237;45.586;13.782;2024-03-23T05:36:14;9.90;81.90
45491;DHT22;31237;45.586;13.782;2024-03-23T05:38:40;9.90;82.00
45491;DHT22;31237;45.586;13.782;2024-03-23T05:41:06;10.00;82.00
45491;DHT22;31237;45.586;13.782;2024-03-23T05:43:32;10.00;82.00
45491;DHT22;31237;45.586;13.782;2024-03-23T05:45:59;10.10;82.00
45491;DHT22;31237;45.586;13.782;2024-03-23T05:48:25;10.10;81.90
45491;DHT22;31237;45.586;13.782;2024-03-23T05:50:52;10.20;81.80
45491;DHT22;31237;45.586;13.782;2024-03-23T05:53:19;10.30;81.70
45491;DHT22;31237;45.586;13.782;2024-03-23T05:55:47;10.30;81.60
45491;DHT22;31237;45.586;13.782;2024-03-23T05:58:15;10.40;81.50
45491;DHT22;31237;45.586;13.782;2024-03-23T06:00:42;10.50;81.40
45491;DHT22;31237;45.586;13.782;2024-03-23T06:03:08;10.60;81.40
45491;DHT22;31237;45.586;13.782;2024-03-23T06:05:34;10.60;81.20
45491;DHT22;31237;45.586;13.782;2024-03-23T06:08:00;10.70;81.30
45491;DHT22;31237;45.586;13.782;2024-03-23T06:10:26;10.80;81.20
45491;DHT22;31237;45.586;13.782;2024-03-23T06:12:52;10.90;81.10
45491;DHT22;31237;45.586;13.782;2024-03-23T06:15:19;11.00;81.10
45491;DHT22;31237;45.586;13.782;2024-03-23T06:17:45;11.10;80.90
45491;DHT22;31237;45.586;13.782;2024-03-23T06:20:10;11.10;80.90
45491;DHT22;31237;45.586;13.782;2024-03-23T06:22:36;11.30;80.70
45491;DHT22;31237;45.586;13.782;2024-03-23T06:25:03;11.30;80.40
45491;DHT22;31237;45.586;13.782;2024-03-23T06:27:28;11.40;80.20
45491;DHT22;31237;45.586;13.782;2024-03-23T06:29:54;11.50;80.00
45491;DHT22;31237;45.586;13.782;2024-03-23T06:32:20;11.60;79.80
45491;DHT22;31237;45.586;13.782;2024-03-23T06:34:46;11.70;79.60
45491;DHT22;31237;45.586;13.782;2024-03-23T06:37:12;11.80;79.40
45491;DHT22;31237;45.586;13.782;2024-03-23T06:39:38;11.90;79.20
45491;DHT22;31237;45.586;13.782;2024-03-23T06:42:04;12.00;79.10
45491;DHT22;31237;45.586;13.782;2024-03-23T06:44:30;12.00;78.90
45491;DHT22;31237;45.586;13.782;2024-03-23T06:46:57;12.10;78.80
45491;DHT22;31237;45.586;13.782;2024-03-23T06:49:23;12.20;78.60
45491;DHT22;31237;45.586;13.782;2024-03-23T06:51:49;12.30;78.50
45491;DHT22;31237;45.586;13.782;2024-03-23T06:54:17;12.40;78.40
45491;DHT22;31237;45.586;13.782;2024-03-23T06:56:44;12.50;78.30
45491;DHT22;31237;45.586;13.782;2024-03-23T06:59:10;12.60;78.30
45491;DHT22;31237;45.586;13.782;2024-03-23T07:01:36;12.60;78.10
45491;DHT22;31237;45.586;13.782;2024-03-23T07:04:02;12.70;77.90
45491;DHT22;31237;45.586;13.782;2024-03-23T07:06:30;12.80;77.70
45491;DHT22;31237;45.586;13.782;2024-03-23T07:08:55;12.90;77.50
45491;DHT22;31237;45.586;13.782;2024-03-23T07:11:22;13.00;77.30
45491;DHT22;31237;45.586;13.782;2024-03-23T07:13:51;13.20;77.10
45491;DHT22;31237;45.586;13.782;2024-03-23T07:16:18;13.30;76.90
45491;DHT22;31237;45.586;13.782;2024-03-23T07:18:44;13.40;76.50
45491;DHT22;31237;45.586;13.782;2024-03-23T07:21:10;13.50;76.30
45491;DHT22;31237;45.586;13.782;2024-03-23T07:23:36;13.60;75.90
45491;DHT22;31237;45.586;13.782;2024-03-23T07:26:03;13.80;75.70
45491;DHT22;31237;45.586;13.782;2024-03-23T07:28:33;13.90;75.40
45491;DHT22;31237;45.586;13.782;2024-03-23T07:31:04;14.10;75.40
45491;DHT22;31237;45.586;13.782;2024-03-23T07:33:31;14.30;74.00
45491;DHT22;31237;45.586;13.782;2024-03-23T07:35:57;14.50;73.80
45491;DHT22;31237;45.586;13.782;2024-03-23T07:38:27;14.60;73.50
45491;DHT22;31237;45.586;13.782;2024-03-23T07:41:02;14.80;73.10
45491;DHT22;31237;45.586;13.782;2024-03-23T07:43:28;15.00;72.40
45491;DHT22;31237;45.586;13.782;2024-03-23T07:45:54;15.20;72.10
45491;DHT22;31237;45.586;13.782;2024-03-23T07:48:21;15.30;71.70
45491;DHT22;31237;45.586;13.782;2024-03-23T07:53:23;15.50;70.70
45491;DHT22;31237;45.586;13.782;2024-03-23T07:55:56;15.60;70.30
45491;DHT22;31237;45.586;13.782;2024-03-23T07:58:22;15.70;70.10
45491;DHT22;31237;45.586;13.782;2024-03-23T08:00:48;15.80;70.00
45491;DHT22;31237;45.586;13.782;2024-03-23T08:03:14;15.90;69.80
45491;DHT22;31237;45.586;13.782;2024-03-23T08:05:40;16.00;69.40
45491;DHT22;31237;45.586;13.782;2024-03-23T08:08:06;16.00;69.20
45491;DHT22;31237;45.586;13.782;2024-03-23T08:10:31;16.00;69.00
45491;DHT22;31237;45.586;13.782;2024-03-23T08:12:57;16.00;68.90
45491;DHT22;31237;45.586;13.782;2024-03-23T08:15:23;16.00;68.90
45491;DHT22;31237;45.586;13.782;2024-03-23T08:17:49;16.10;69.00
45491;DHT22;31237;45.586;13.782;2024-03-23T08:20:15;16.10;68.70
45491;DHT22;31237;45.586;13.782;2024-03-23T08:22:41;16.20;68.70
45491;DHT22;31237;45.586;13.782;2024-03-23T08:25:07;16.40;68.70
45491;DHT22;31237;45.586;13.782;2024-03-23T08:27:32;16.40;68.50
45491;DHT22;31237;45.586;13.782;2024-03-23T08:29:58;16.50;68.20
45491;DHT22;31237;45.586;13.782;2024-03-23T08:32:24;16.60;68.00
45491;DHT22;31237;45.586;13.782;2024-03-23T08:34:50;16.70;67.80
45491;DHT22;31237;45.586;13.782;2024-03-23T08:37:16;16.80;67.80
45491;DHT22;31237;45.586;13.782;2024-03-23T08:39:43;16.80;67.60
45491;DHT22;31237;45.586;13.782;2024-03-23T08:42:09;16.90;67.20
45491;DHT22;31237;45.586;13.782;2024-03-23T08:44:35;17.00;67.20
45491;DHT22;31237;45.586;13.782;2024-03-23T08:47:01;17.00;67.00
45491;DHT22;31237;45.586;13.782;2024-03-23T08:49:27;17.10;66.90
45491;DHT22;31237;45.586;13.782;2024-03-23T08:51:53;17.10;66.60
45491;DHT22;31237;45.586;13.782;2024-03-23T08:54:20;17.20;66.80
45491;DHT22;31237;45.586;13.782;2024-03-23T08:56:47;17.20;66.70
45491;DHT22;31237;45.586;13.782;2024-03-23T08:59:13;17.30;66.40
45491;DHT22;31237;45.586;13.782;2024-03-23T09:01:39;17.30;66.60
45491;DHT22;31237;45.586;13.782;2024-03-23T09:04:04;17.40;66.60
45491;DHT22;31237;45.586;13.782;2024-03-23T09:06:30;17.50;66.40
45491;DHT22;31237;45.586;13.782;2024-03-23T09:08:56;17.50;66.10
45491;DHT22;31237;45.586;13.782;2024-03-23T09:11:22;17.60;66.20
45491;DHT22;31237;45.586;13.782;2024-03-23T09:13:47;17.70;66.40
45491;DHT22;31237;45.586;13.782;2024-03-23T09:16:13;17.70;66.30
45491;DHT22;31237;45.586;13.782;2024-03-23T09:18:39;17.80;66.10
45491;DHT22;31237;45.586;13.782;2024-03-23T09:21:11;18.00;65.90
45491;DHT22;31237;45.586;13.782;2024-03-23T09:23:38;18.10;65.90
45491;DHT22;31237;45.586;13.782;2024-03-23T09:26:04;18.20;65.80
45491;DHT22;31237;45.586;13.782;2024-03-23T09:28:31;18.30;65.20
45491;DHT22;31237;45.586;13.782;2024-03-23T09:31:04;18.40;65.00
45491;DHT22;31237;45.586;13.782;2024-03-23T09:33:30;18.40;64.80
45491;DHT22;31237;45.586;13.782;2024-03-23T09:35:56;18.50;64.50
45491;DHT22;31237;45.586;13.782;2024-03-23T09:38:22;18.60;64.40
45491;DHT22;31237;45.586;13.782;2024-03-23T09:40:52;18.70;64.30
45491;DHT22;31237;45.586;13.782;2024-03-23T09:43:19;18.80;64.20
45491;DHT22;31237;45.586;13.782;2024-03-23T09:45:45;18.80;63.80
45491;DHT22;31237;45.586;13.782;2024-03-23T09:48:12;18.90;63.70
45491;DHT22;31237;45.586;13.782;2024-03-23T09:50:42;19.00;63.70
45491;DHT22;31237;45.586;13.782;2024-03-23T09:53:10;19.10;63.50
45491;DHT22;31237;45.586;13.782;2024-03-23T09:55:43;19.10;63.00
45491;DHT22;31237;45.586;13.782;2024-03-23T09:58:13;19.10;62.80
45491;DHT22;31237;45.586;13.782;2024-03-23T10:00:39;19.00;62.70
45491;DHT22;31237;45.586;13.782;2024-03-23T10:03:05;18.90;63.40
45491;DHT22;31237;45.586;13.782;2024-03-23T10:05:32;18.80;63.70
45491;DHT22;31237;45.586;13.782;2024-03-23T10:08:00;18.60;64.40
45491;DHT22;31237;45.586;13.782;2024-03-23T10:10:37;18.50;65.10
45491;DHT22;31237;45.586;13.782;2024-03-23T10:13:03;18.40;65.60
45491;DHT22;31237;45.586;13.782;2024-03-23T10:15:29;18.40;66.40
45491;DHT22;31237;45.586;13.782;2024-03-23T10:17:55;18.30;67.20
45491;DHT22;31237;45.586;13.782;2024-03-23T10:20:22;18.20;67.80
45491;DHT22;31237;45.586;13.782;2024-03-23T10:22:49;18.10;68.30
45491;DHT22;31237;45.586;13.782;2024-03-23T10:25:15;17.90;69.00
45491;DHT22;31237;45.586;13.782;2024-03-23T10:27:41;17.80;69.60
45491;DHT22;31237;45.586;13.782;2024-03-23T10:30:10;17.60;70.90
45491;DHT22;31237;45.586;13.782;2024-03-23T10:32:37;17.40;72.30
45491;DHT22;31237;45.586;13.782;2024-03-23T10:35:20;17.20;73.90
45491;DHT22;31237;45.586;13.782;2024-03-23T10:37:49;17.10;75.50
45491;DHT22;31237;45.586;13.782;2024-03-23T10:40:17;17.00;76.60
45491;DHT22;31237;45.586;13.782;2024-03-23T10:42:44;16.90;77.80
45491;DHT22;31237;45.586;13.782;2024-03-23T10:45:10;16.80;78.70
45491;DHT22;31237;45.586;13.782;2024-03-23T10:47:37;16.70;79.90
45491;DHT22;31237;45.586;13.782;2024-03-23T10:50:06;16.70;80.90
45491;DHT22;31237;45.586;13.782;2024-03-23T10:52:35;16.70;81.50
45491;DHT22;31237;45.586;13.782;2024-03-23T10:55:05;16.70;82.10
45491;DHT22;31237;45.586;13.782;2024-03-23T10:57:38;16.80;82.70
45491;DHT22;31237;45.586;13.782;2024-03-23T11:00:06;16.90;82.20
45491;DHT22;31237;45.586;13.782;2024-03-23T11:02:32;16.90;82.50
45491;DHT22;31237;45.586;13.782;2024-03-23T11:04:58;16.90;83.10
45491;DHT22;31237;45.586;13.782;2024-03-23T11:09:53;16.80;83.30
45491;DHT22;31237;45.586;13.782;2024-03-23T11:15:12;16.50;84.70
45491;DHT22;31237;45.586;13.782;2024-03-23T11:17:38;16.40;85.10
45491;DHT22;31237;45.586;13.782;2024-03-23T11:20:05;16.50;85.60
45491;DHT22;31237;45.586;13.782;2024-03-23T11:25:21;16.60;86.10
45491;DHT22;31237;45.586;13.782;2024-03-23T11:27:50;16.60;86.20
45491;DHT22;31237;45.586;13.782;2024-03-23T11:30:25;16.70;85.90
45491;DHT22;31237;45.586;13.782;2024-03-23T11:32:55;16.60;86.00
45491;DHT22;31237;45.586;13.782;2024-03-23T11:38:15;16.50;86.70
45491;DHT22;31237;45.586;13.782;2024-03-23T11:40:44;16.40;86.90
45491;DHT22;31237;45.586;13.782;2024-03-23T11:43:13;16.30;87.50
45491;DHT22;31237;45.586;13.782;2024-03-23T11:45:50;16.30;87.90
45491;DHT22;31237;45.586;13.782;2024-03-23T11:48:22;16.30;87.80
45491;DHT22;31237;45.586;13.782;2024-03-23T11:50:54;16.30;88.00
45491;DHT22;31237;45.586;13.782;2024-03-23T11:53:22;16.30;88.10
45491;DHT22;31237;45.586;13.782;2024-03-23T11:55:52;16.40;88.00
45491;DHT22;31237;45.586;13.782;2024-03-23T11:58:22;16.40;87.70
45491;DHT22;31237;45.586;13.782;2024-03-23T12:00:59;16.40;88.00
45491;DHT22;31237;45.586;13.782;2024-03-23T12:03:26;16.40;88.00
45491;DHT22;31237;45.586;13.782;2024-03-23T12:05:54;16.50;88.00
45491;DHT22;31237;45.586;13.782;2024-03-23T12:08:21;16.50;87.90
45491;DHT22;31237;45.586;13.782;2024-03-23T12:10:52;16.60;87.50
45491;DHT22;31237;45.586;13.782;2024-03-23T12:13:19;16.60;87.80
45491;DHT22;31237;45.586;13.782;2024-03-23T12:15:47;16.80;88.10
45491;DHT22;31237;45.586;13.782;2024-03-23T12:18:13;16.80;87.90
45491;DHT22;31237;45.586;13.782;2024-03-23T12:20:39;16.90;87.80
45491;DHT22;31237;45.586;13.782;2024-03-23T12:23:06;16.90;87.90
45491;DHT22;31237;45.586;13.782;2024-03-23T12:25:32;16.90;87.70
45491;DHT22;31237;45.586;13.782;2024-03-23T12:27:59;17.00;87.80
45491;DHT22;31237;45.586;13.782;2024-03-23T12:30:25;16.90;87.40
45491;DHT22;31237;45.586;13.782;2024-03-23T12:32:51;16.90;87.90
45491;DHT22;31237;45.586;13.782;2024-03-23T12:35:16;16.80;88.00
45491;DHT22;31237;45.586;13.782;2024-03-23T12:37:43;16.90;88.30
45491;DHT22;31237;45.586;13.782;2024-03-23T12:40:10;16.90;88.20
45491;DHT22;31237;45.586;13.782;2024-03-23T12:42:35;16.90;88.40
45491;DHT22;31237;45.586;13.782;2024-03-23T12:45:01;16.80;88.10
45491;DHT22;31237;45.586;13.782;2024-03-23T12:47:30;16.80;88.30
45491;DHT22;31237;45.586;13.782;2024-03-23T12:49:56;16.70;88.70
45491;DHT22;31237;45.586;13.782;2024-03-23T12:52:22;16.70;88.70
45491;DHT22;31237;45.586;13.782;2024-03-23T12:54:49;16.70;89.70
45491;DHT22;31237;45.586;13.782;2024-03-23T12:57:15;16.70;90.00
45491;DHT22;31237;45.586;13.782;2024-03-23T12:59:41;16.70;90.20
45491;DHT22;31237;45.586;13.782;2024-03-23T13:02:06;16.80;89.90
45491;DHT22;31237;45.586;13.782;2024-03-23T13:04:32;16.80;89.50
45491;DHT22;31237;45.586;13.782;2024-03-23T13:06:58;16.90;89.40
45491;DHT22;31237;45.586;13.782;2024-03-23T13:09:24;16.90;89.00
45491;DHT22;31237;45.586;13.782;2024-03-23T13:11:50;16.90;89.00
45491;DHT22;31237;45.586;13.782;2024-03-23T13:14:15;16.90;88.80
45491;DHT22;31237;45.586;13.782;2024-03-23T13:16:42;16.90;88.60
45491;DHT22;31237;45.586;13.782;2024-03-23T13:19:08;16.90;88.60
45491;DHT22;31237;45.586;13.782;2024-03-23T13:21:34;16.90;88.60
45491;DHT22;31237;45.586;13.782;2024-03-23T13:23:59;16.90;88.50
45491;DHT22;31237;45.586;13.782;2024-03-23T13:26:25;17.00;88.70
45491;DHT22;31237;45.586;13.782;2024-03-23T13:28:51;17.00;88.70
45491;DHT22;31237;45.586;13.782;2024-03-23T13:31:16;17.00;88.80
45491;DHT22;31237;45.586;13.782;2024-03-23T13:33:42;17.10;88.70
45491;DHT22;31237;45.586;13.782;2024-03-23T13:36:09;17.10;88.90
45491;DHT22;31237;45.586;13.782;2024-03-23T13:38:35;17.10;88.60
45491;DHT22;31237;45.586;13.782;2024-03-23T13:41:01;17.30;87.40
45491;DHT22;31237;45.586;13.782;2024-03-23T13:43:27;17.40;85.10
45491;DHT22;31237;45.586;13.782;2024-03-23T13:45:58;17.50;82.50
45491;DHT22;31237;45.586;13.782;2024-03-23T13:48:26;17.60;81.20
45491;DHT22;31237;45.586;13.782;2024-03-23T13:51:01;17.70;79.70
45491;DHT22;31237;45.586;13.782;2024-03-23T13:53:27;17.80;78.10
45491;DHT22;31237;45.586;13.782;2024-03-23T13:55:53;17.80;77.80
45491;DHT22;31237;45.586;13.782;2024-03-23T13:58:20;17.80;77.10
45491;DHT22;31237;45.586;13.782;2024-03-23T14:00:45;17.90;75.50
45491;DHT22;31237;45.586;13.782;2024-03-23T14:03:12;17.90;74.80
45491;DHT22;31237;45.586;13.782;2024-03-23T14:05:38;18.00;74.00
45491;DHT22;31237;45.586;13.782;2024-03-23T14:08:11;18.00;73.70
45491;DHT22;31237;45.586;13.782;2024-03-23T14:10:40;18.10;71.00
45491;DHT22;31237;45.586;13.782;2024-03-23T14:13:06;18.10;70.70
45491;DHT22;31237;45.586;13.782;2024-03-23T14:15:32;18.10;70.20
45491;DHT22;31237;45.586;13.782;2024-03-23T14:17:58;18.20;69.60
45491;DHT22;31237;45.586;13.782;2024-03-23T14:20:24;18.20;68.20
45491;DHT22;31237;45.586;13.782;2024-03-23T14:22:51;18.20;66.80
45491;DHT22;31237;45.586;13.782;2024-03-23T14:25:17;18.20;67.10
45491;DHT22;31237;45.586;13.782;2024-03-23T14:27:46;18.20;66.90
45491;DHT22;31237;45.586;13.782;2024-03-23T14:30:12;18.20;66.90
45491;DHT22;31237;45.586;13.782;2024-03-23T14:32:38;18.20;66.50
45491;DHT22;31237;45.586;13.782;2024-03-23T14:35:06;18.20;66.40
45491;DHT22;31237;45.586;13.782;2024-03-23T14:37:38;18.20;66.20
45491;DHT22;31237;45.586;13.782;2024-03-23T14:40:05;18.10;66.20
45491;DHT22;31237;45.586;13.782;2024-03-23T14:42:32;18.10;66.40
45491;DHT22;31237;45.586;13.782;2024-03-23T14:44:58;18.10;66.60
45491;DHT22;31237;45.586;13.782;2024-03-23T14:47:24;18.10;66.90
45491;DHT22;31237;45.586;13.782;2024-03-23T14:49:49;18.10;67.20
45491;DHT22;31237;45.586;13.782;2024-03-23T14:52:18;18.10;67.50
45491;DHT22;31237;45.586;13.782;2024-03-23T14:54:45;18.10;67.40
45491;DHT22;31237;45.586;13.782;2024-03-23T14:57:11;18.10;67.50
45491;DHT22;31237;45.586;13.782;2024-03-23T14:59:37;18.10;67.70
45491;DHT22;31237;45.586;13.782;2024-03-23T15:02:04;18.10;67.60
45491;DHT22;31237;45.586;13.782;2024-03-23T15:04:30;18.10;67.50
45491;DHT22;31237;45.586;13.782;2024-03-23T15:06:56;18.20;67.40
45491;DHT22;31237;45.586;13.782;2024-03-23T15:09:22;18.20;67.30
45491;DHT22;31237;45.586;13.782;2024-03-23T15:11:47;18.20;67.30
45491;DHT22;31237;45.586;13.782;2024-03-23T15:14:13;18.20;67.50
45491;DHT22;31237;45.586;13.782;2024-03-23T15:16:39;18.20;67.60
45491;DHT22;31237;45.586;13.782;2024-03-23T15:19:06;18.20;67.80
45491;DHT22;31237;45.586;13.782;2024-03-23T15:21:32;18.10;67.70
45491;DHT22;31237;45.586;13.782;2024-03-23T15:23:58;18.10;67.70
45491;DHT22;31237;45.586;13.782;2024-03-23T15:26:23;18.10;67.70
45491;DHT22;31237;45.586;13.782;2024-03-23T15:28:49;18.00;67.70
45491;DHT22;31237;45.586;13.782;2024-03-23T15:31:24;17.90;67.70
45491;DHT22;31237;45.586;13.782;2024-03-23T15:33:51;17.90;67.70
45491;DHT22;31237;45.586;13.782;2024-03-23T15:36:16;17.90;67.80
45491;DHT22;31237;45.586;13.782;2024-03-23T15:38:43;17.80;67.80
45491;DHT22;31237;45.586;13.782;2024-03-23T15:41:09;17.70;67.70
45491;DHT22;31237;45.586;13.782;2024-03-23T15:43:35;17.70;67.90
45491;DHT22;31237;45.586;13.782;2024-03-23T15:46:05;17.70;68.20
45491;DHT22;31237;45.586;13.782;2024-03-23T15:48:37;17.70;68.40
45491;DHT22;31237;45.586;13.782;2024-03-23T15:51:04;17.80;68.60
45491;DHT22;31237;45.586;13.782;2024-03-23T15:53:30;17.80;68.50
45491;DHT22;31237;45.586;13.782;2024-03-23T15:56:03;17.80;68.50
45491;DHT22;31237;45.586;13.782;2024-03-23T15:58:31;17.70;68.50
45491;DHT22;31237;45.586;13.782;2024-03-23T16:00:58;17.80;68.80
45491;DHT22;31237;45.586;13.782;2024-03-23T16:03:24;17.70;69.00
45491;DHT22;31237;45.586;13.782;2024-03-23T16:05:56;17.70;69.00
45491;DHT22;31237;45.586;13.782;2024-03-23T16:08:22;17.60;69.00
45491;DHT22;31237;45.586;13.782;2024-03-23T16:10:49;17.70;69.20
45491;DHT22;31237;45.586;13.782;2024-03-23T16:13:16;17.70;69.30
45491;DHT22;31237;45.586;13.782;2024-03-23T16:15:42;17.60;69.30
45491;DHT22;31237;45.586;13.782;2024-03-23T16:18:08;17.70;69.40
45491;DHT22;31237;45.586;13.782;2024-03-23T16:20:33;17.70;69.10
45491;DHT22;31237;45.586;13.782;2024-03-23T16:23:03;17.70;68.70